Time;durP1;ratioP1;P1;durP2;ratioP2;P2;SDS_P1;SDS_P2;PMS_P1;PMS_P2;Temp;Humidity;BMP_temperature;BMP_pressure;BME280_temperature;BME280_humidity;BME280_pressure;Samples;Min_cycle;Max_cycle;Signal;HPM_P1;HPM_P2
2023/05/01 00:02:26;;;;;;;0.15;0.15;;;;;;;11.47;100.00;101829.34;10377573;28;20070;-81
2023/05/01 00:07:30;;;;;;;0.08;0.08;;;;;;;11.83;100.00;101816.91;10375716;28;20093;-81
2023/05/01 00:12:32;;;;;;;0.00;0.00;;;;;;;11.80;100.00;101811.63;10394672;28;20049;-80
2023/05/01 00:17:33;;;;;;;0.03;0.03;;;;;;;12.18;100.00;101808.63;10382005;28;20061;-80
2023/05/01 00:22:35;;;;;;;0.13;0.10;;;;;;;12.76;100.00;101793.28;10365871;28;20455;-79
2023/05/01 00:27:36;;;;;;;0.45;0.25;;;;;;;11.76;100.00;101794.28;10346770;28;20568;-79
2023/05/01 00:32:38;;;;;;;0.28;0.20;;;;;;;12.38;100.00;101786.94;10358581;28;20640;-79
2023/05/01 00:37:39;;;;;;;0.00;0.00;;;;;;;11.88;100.00;101784.38;10374183;28;20064;-79
2023/05/01 00:42:41;;;;;;;0.40;0.15;;;;;;;12.06;100.00;101776.41;10359067;28;20084;-81
2023/05/01 00:47:42;;;;;;;0.10;0.10;;;;;;;12.57;100.00;101760.81;10359075;28;20484;-79
2023/05/01 00:52:45;;;;;;;0.10;0.10;;;;;;;12.38;100.00;101745.59;10393646;28;20056;-79
2023/05/01 00:57:46;;;;;;;0.00;0.00;;;;;;;12.05;100.00;101751.41;10392582;28;20065;-79
2023/05/01 01:02:48;;;;;;;0.20;0.00;;;;;;;12.37;100.00;101746.41;10391566;28;20222;-80
2023/05/01 01:08:05;;;;;;;0.00;0.00;;;;;;;12.62;100.00;101733.38;10396979;28;20046;-79
2023/05/01 01:13:16;;;;;;;0.10;0.10;;;;;;;12.38;100.00;101724.94;10399887;28;20044;-79
2023/05/01 01:18:36;;;;;;;0.22;0.20;;;;;;;12.35;100.00;101719.66;10390011;28;20132;-80
2023/05/01 01:24:20;;;;;;;0.75;0.40;;;;;;;12.54;100.00;101712.47;10344497;28;20472;-79
2023/05/01 01:29:44;;;;;;;0.80;0.08;;;;;;;12.44;100.00;101719.03;10330456;28;20049;-81
2023/05/01 01:35:03;;;;;;;0.25;0.20;;;;;;;12.47;100.00;101707.94;10377251;28;20415;-81
2023/05/01 01:40:11;;;;;;;0.40;0.40;;;;;;;12.28;100.00;101697.03;10401106;28;20049;-80
2023/05/01 01:45:29;;;;;;;0.00;0.00;;;;;;;12.45;100.00;101691.50;10367302;28;20050;-79
2023/05/01 01:50:31;;;;;;;0.60;0.15;;;;;;;12.23;100.00;101688.25;10395327;28;20053;-79
2023/05/01 01:55:35;;;;;;;0.03;0.00;;;;;;;12.31;100.00;101691.06;10362829;28;20129;-79
2023/05/01 02:00:40;;;;;;;0.00;0.00;;;;;;;12.24;100.00;101682.28;10382642;28;20144;-79
2023/05/01 02:05:42;;;;;;;0.05;0.03;;;;;;;12.11;100.00;101680.09;10357050;28;20037;-79
2023/05/01 02:10:46;;;;;;;0.10;0.10;;;;;;;12.32;100.00;101675.59;10367420;28;20081;-80
2023/05/01 02:15:50;;;;;;;0.30;0.30;;;;;;;11.92;100.00;101666.56;10374381;28;20049;-80
2023/05/01 02:20:54;;;;;;;0.05;0.05;;;;;;;12.43;100.00;101659.56;10358345;28;20053;-80
2023/05/01 02:25:59;;;;;;;0.05;0.03;;;;;;;12.12;100.00;101656.03;10367908;28;20037;-80
2023/05/01 02:31:01;;;;;;;0.00;0.00;;;;;;;11.99;100.00;101653.06;10367268;28;20116;-80
2023/05/01 02:36:04;;;;;;;0.00;0.00;;;;;;;11.97;100.00;101643.53;10390719;28;20048;-79
2023/05/01 02:41:10;;;;;;;0.20;0.20;;;;;;;11.96;100.00;101637.44;10373593;28;20050;-80
2023/05/01 02:46:14;;;;;;;0.00;0.00;;;;;;;11.93;100.00;101637.34;10388933;28;20045;-80
2023/05/01 02:51:18;;;;;;;0.35;0.30;;;;;;;11.89;100.00;101632.91;10390824;28;20060;-80
2023/05/01 02:56:20;;;;;;;0.40;0.13;;;;;;;12.04;100.00;101615.34;10382516;28;20096;-80
2023/05/01 03:01:22;;;;;;;0.00;0.00;;;;;;;12.13;100.00;101617.34;10373376;28;20137;-80
2023/05/01 03:06:26;;;;;;;0.10;0.10;;;;;;;11.91;100.00;101619.19;10384073;28;20057;-80
2023/05/01 03:11:27;;;;;;;0.10;0.08;;;;;;;11.88;100.00;101613.06;10391387;28;20046;-79
2023/05/01 03:16:29;;;;;;;0.13;0.13;;;;;;;12.21;100.00;101602.06;10367291;28;20049;-79
2023/05/01 03:21:31;;;;;;;0.15;0.13;;;;;;;12.29;100.00;101591.97;10367659;28;20080;-80
2023/05/01 03:26:33;;;;;;;0.00;0.00;;;;;;;12.01;100.00;101586.84;10387450;28;20050;-80
2023/05/01 03:31:35;;;;;;;0.22;0.22;;;;;;;12.28;100.00;101578.19;10358738;28;20393;-79
2023/05/01 03:36:38;;;;;;;0.00;0.00;;;;;;;12.31;100.00;101575.69;10359833;28;20042;-79
2023/05/01 03:41:39;;;;;;;0.20;0.17;;;;;;;12.08;100.00;101577.56;10364689;28;20050;-79
2023/05/01 03:46:50;;;;;;;0.17;0.17;;;;;;;12.29;100.00;101569.59;10379780;28;20045;-79
2023/05/01 03:51:59;;;;;;;0.13;0.13;;;;;;;12.12;100.00;101563.94;10352826;28;20041;-80
2023/05/01 03:57:01;;;;;;;0.22;0.22;;;;;;;12.32;100.00;101556.75;10361772;28;20057;-79
2023/05/01 04:02:03;;;;;;;0.10;0.10;;;;;;;12.48;100.00;101552.03;10375333;28;20052;-79
2023/05/01 04:07:08;;;;;;;0.08;0.08;;;;;;;11.82;100.00;101561.25;10371606;28;20045;-79
2023/05/01 04:12:10;;;;;;;0.77;0.32;;;;;;;12.11;100.00;101553.53;10381236;28;20048;-79
2023/05/01 04:17:11;;;;;;;0.00;0.00;;;;;;;12.28;100.00;101557.50;10358087;28;20579;-80
2023/05/01 04:22:13;;;;;;;0.32;0.22;;;;;;;12.53;100.00;101553.06;10373939;28;20132;-80
2023/05/01 04:27:15;;;;;;;0.05;0.03;;;;;;;12.90;100.00;101548.91;10371677;28;20049;-80
2023/05/01 04:32:16;;;;;;;0.20;0.20;;;;;;;12.35;100.00;101548.25;10372144;28;20067;-80
2023/05/01 04:37:18;;;;;;;0.35;0.35;;;;;;;12.22;100.00;101549.59;10377825;28;20072;-80
2023/05/01 04:42:20;;;;;;;0.15;0.15;;;;;;;12.11;100.00;101550.94;10364357;28;20136;-79
2023/05/01 04:47:21;;;;;;;1.05;0.98;;;;;;;12.00;100.00;101543.78;10396608;28;20053;-82
2023/05/01 04:52:23;;;;;;;0.30;0.30;;;;;;;12.34;100.00;101542.19;10377310;28;20125;-79
2023/05/01 04:57:29;;;;;;;0.00;0.00;;;;;;;12.45;100.00;101546.78;10354049;28;20648;-79
2023/05/01 05:02:31;;;;;;;0.50;0.47;;;;;;;12.11;100.00;101549.25;10371943;28;20038;-80
2023/05/01 05:07:32;;;;;;;0.00;0.00;;;;;;;12.57;100.00;101539.38;10376521;28;20038;-79
2023/05/01 05:12:54;;;;;;;0.20;0.10;;;;;;;12.48;100.00;101550.34;10395346;28;20044;-80
2023/05/01 05:17:56;;;;;;;0.20;0.17;;;;;;;12.53;100.00;101543.56;10360819;28;20072;-79
2023/05/01 05:22:58;;;;;;;0.10;0.10;;;;;;;12.74;100.00;101536.38;10381841;28;20046;-79
2023/05/01 05:27:59;;;;;;;0.43;0.20;;;;;;;13.00;100.00;101539.66;10377892;28;20146;-79
2023/05/01 05:33:01;;;;;;;0.00;0.00;;;;;;;12.98;100.00;101542.22;10366825;28;20504;-79
2023/05/01 05:38:03;;;;;;;0.93;0.30;;;;;;;13.64;100.00;101534.34;10355270;28;20050;-80
2023/05/01 05:43:09;;;;;;;0.45;0.28;;;;;;;13.93;100.00;101535.03;10360005;28;20168;-80
2023/05/01 05:48:11;;;;;;;0.00;0.00;;;;;;;13.59;100.00;101531.66;10395110;28;20137;-79
2023/05/01 05:53:14;;;;;;;0.10;0.10;;;;;;;14.00;100.00;101517.03;10348555;28;20064;-80
2023/05/01 05:58:21;;;;;;;0.20;0.05;;;;;;;13.94;100.00;101517.75;10377594;28;20397;-80
2023/05/01 06:03:23;;;;;;;0.22;0.10;;;;;;;14.06;100.00;101512.84;10365475;28;20466;-81
2023/05/01 06:08:28;;;;;;;1.00;0.80;;;;;;;14.12;100.00;101514.69;10396217;28;20069;-79
2023/05/01 06:13:30;;;;;;;0.43;0.40;;;;;;;14.73;100.00;101509.00;10383091;28;20073;-80
2023/05/01 06:18:31;;;;;;;0.55;0.35;;;;;;;14.68;100.00;101506.31;10366464;28;20050;-80
2023/05/01 06:23:33;;;;;;;0.88;0.70;;;;;;;14.22;100.00;101508.00;10391853;28;20050;-80
2023/05/01 06:28:55;;;;;;;0.30;0.30;;;;;;;14.48;100.00;101513.72;10375257;28;20272;-81
2023/05/01 06:33:57;;;;;;;0.45;0.20;;;;;;;15.37;100.00;101516.16;10351417;28;20045;-81
2023/05/01 06:39:15;;;;;;;0.52;0.20;;;;;;;15.28;100.00;101510.81;10381332;28;20056;-79
2023/05/01 06:44:16;;;;;;;0.10;0.10;;;;;;;16.25;100.00;101511.34;10383246;28;20774;-81
2023/05/01 06:49:18;;;;;;;0.55;0.40;;;;;;;15.90;100.00;101516.97;10377397;28;20137;-80
2023/05/01 06:54:19;;;;;;;0.10;0.10;;;;;;;16.18;100.00;101513.88;10401531;28;20113;-80
2023/05/01 06:59:21;;;;;;;0.00;0.00;;;;;;;16.39;100.00;101504.56;10387669;28;20045;-81
2023/05/01 07:04:23;;;;;;;0.45;0.20;;;;;;;16.52;100.00;101509.91;10386862;28;20575;-80
2023/05/01 07:09:24;;;;;;;0.20;0.17;;;;;;;17.04;99.54;101506.97;10379816;28;20049;-80
2023/05/01 07:14:26;;;;;;;0.10;0.10;;;;;;;17.67;95.56;101504.84;10389245;28;20096;-80
2023/05/01 07:19:27;;;;;;;3.03;0.22;;;;;;;18.04;96.71;101499.84;10353572;28;20045;-82
2023/05/01 07:24:29;;;;;;;0.55;0.20;;;;;;;17.21;100.00;101501.91;10352753;28;20378;-88
2023/05/01 07:29:32;;;;;;;0.43;0.22;;;;;;;18.50;93.07;101493.06;10376556;28;20408;-88
2023/05/01 07:34:33;;;;;;;0.20;0.20;;;;;;;18.85;97.46;101490.47;10342108;28;20060;-87
2023/05/01 07:39:35;;;;;;;2.80;0.20;;;;;;;19.16;93.68;101492.28;10351215;28;20190;-87
2023/05/01 07:44:36;;;;;;;0.60;0.20;;;;;;;18.90;96.96;101493.09;10360905;28;20045;-87
2023/05/01 07:49:38;;;;;;;0.90;0.80;;;;;;;19.73;100.00;101480.84;10344389;28;20219;-87
2023/05/01 07:54:40;;;;;;;1.63;0.35;;;;;;;19.90;89.07;101480.81;10327092;28;20057;-88
2023/05/01 07:59:42;;;;;;;0.10;0.10;;;;;;;19.18;90.07;101491.41;10340296;28;20184;-86
2023/05/01 08:04:44;;;;;;;0.75;0.35;;;;;;;20.82;87.16;101482.06;10350902;28;20093;-88
2023/05/01 08:09:46;;;;;;;0.30;0.30;;;;;;;19.30;85.79;101485.31;10344048;28;20145;-87
2023/05/01 08:14:48;;;;;;;0.32;0.15;;;;;;;18.82;91.48;101489.59;10348600;28;20039;-87
2023/05/01 08:19:49;;;;;;;0.25;0.25;;;;;;;21.31;86.67;101477.31;10360790;28;20046;-86
2023/05/01 08:24:51;;;;;;;0.00;0.00;;;;;;;22.05;84.50;101465.13;10348306;28;20052;-86
2023/05/01 08:29:52;;;;;;;0.38;0.38;;;;;;;20.83;86.89;101468.09;10356846;28;20131;-86
2023/05/01 08:34:54;;;;;;;0.20;0.10;;;;;;;21.43;84.40;101469.31;10373268;28;20132;-88
2023/05/01 08:39:56;;;;;;;0.22;0.20;;;;;;;21.06;84.99;101465.31;10379115;28;20512;-89
2023/05/01 08:44:58;;;;;;;0.40;0.35;;;;;;;20.97;84.53;101467.13;10353380;28;20049;-87
2023/05/01 08:50:00;;;;;;;0.35;0.17;;;;;;;20.64;82.90;101471.72;10373404;28;20060;-86
2023/05/01 08:55:03;;;;;;;0.52;0.20;;;;;;;20.56;85.38;101463.91;10345221;28;20140;-87
2023/05/01 09:00:06;;;;;;;0.52;0.32;;;;;;;19.52;86.40;101466.09;10349261;28;20116;-84
2023/05/01 09:05:08;;;;;;;1.00;0.60;;;;;;;18.80;94.95;101475.72;10376851;28;20141;-84
2023/05/01 09:10:11;;;;;;;2.50;0.20;;;;;;;18.96;92.64;101477.47;10399624;28;20049;-84
2023/05/01 09:15:13;;;;;;;0.77;0.20;;;;;;;19.34;94.69;101473.97;10350554;28;20045;-84
2023/05/01 09:20:17;;;;;;;0.68;0.60;;;;;;;18.30;92.62;101475.59;10361836;28;20119;-80
2023/05/01 09:25:18;;;;;;;2.25;0.60;;;;;;;19.27;92.46;101472.22;10372164;28;20591;-81
2023/05/01 09:30:34;;;;;;;0.20;0.20;;;;;;;19.64;89.09;101472.16;10372581;28;20496;-81
2023/05/01 09:35:56;;;;;;;0.03;0.03;;;;;;;20.79;83.80;101466.41;10389110;28;20070;-81
2023/05/01 09:41:03;;;;;;;0.20;0.20;;;;;;;19.51;87.92;101470.47;10360932;28;20068;-80
2023/05/01 09:46:08;;;;;;;3.45;0.52;;;;;;;22.50;80.67;101447.91;10384446;28;20215;-81
2023/05/01 09:51:27;;;;;;;2.35;0.30;;;;;;;21.02;81.71;101452.25;10364677;28;20053;-80
2023/05/01 09:56:30;;;;;;;0.70;0.32;;;;;;;22.11;78.94;101442.31;10371707;28;20088;-80
2023/05/01 10:01:40;;;;;;;0.30;0.25;;;;;;;23.90;77.27;101433.13;10354449;28;20093;-82
2023/05/01 10:06:41;;;;;;;1.85;0.82;;;;;;;23.63;76.07;101434.59;10378589;28;20104;-82
2023/05/01 10:11:51;;;;;;;0.57;0.38;;;;;;;24.85;74.19;101434.50;10376013;28;20141;-82
2023/05/01 10:16:53;;;;;;;0.10;0.10;;;;;;;25.38;71.99;101426.97;10373759;28;20046;-82
2023/05/01 10:21:54;;;;;;;0.22;0.20;;;;;;;24.34;74.82;101430.44;10376485;28;20115;-81
2023/05/01 10:26:57;;;;;;;0.45;0.40;;;;;;;24.53;74.38;101428.22;10397078;28;20128;-82
2023/05/01 10:32:00;;;;;;;0.98;0.68;;;;;;;23.62;74.72;101432.84;10352039;28;20076;-81
2023/05/01 10:37:08;;;;;;;0.15;0.15;;;;;;;22.60;83.34;101434.66;10379047;28;20520;-81
2023/05/01 10:42:12;;;;;;;0.10;0.10;;;;;;;23.26;81.43;101425.63;10384141;28;20046;-81
2023/05/01 10:47:23;;;;;;;0.32;0.28;;;;;;;25.92;79.75;101415.75;10404782;28;20471;-81
2023/05/01 10:52:25;;;;;;;0.30;0.30;;;;;;;24.39;73.56;101420.63;10365351;28;20058;-84
2023/05/01 10:57:41;;;;;;;0.10;0.10;;;;;;;25.33;74.09;101414.78;10373898;28;20121;-84
2023/05/01 11:02:42;;;;;;;0.57;0.47;;;;;;;23.04;75.89;101427.78;10374616;28;20499;-85
2023/05/01 11:07:45;;;;;;;0.38;0.30;;;;;;;23.83;77.17;101404.34;10361205;28;20092;-85
2023/05/01 11:12:50;;;;;;;0.20;0.20;;;;;;;24.71;70.26;101405.00;10384181;28;20076;-85
2023/05/01 11:17:51;;;;;;;0.20;0.20;;;;;;;24.99;67.54;101389.31;10384036;28;20076;-85
2023/05/01 11:22:55;;;;;;;0.40;0.17;;;;;;;26.07;64.03;101395.06;10388228;28;20049;-84
2023/05/01 11:27:59;;;;;;;0.22;0.22;;;;;;;24.96;64.79;101389.41;10382336;28;20057;-85
2023/05/01 11:33:01;;;;;;;0.22;0.22;;;;;;;24.54;69.71;101398.34;10371529;28;20137;-85
2023/05/01 11:38:02;;;;;;;0.40;0.30;;;;;;;24.34;77.87;101390.94;10391223;28;20516;-82
2023/05/01 11:43:06;;;;;;;0.10;0.10;;;;;;;26.28;64.87;101390.91;10361359;28;20056;-83
2023/05/01 11:48:15;;;;;;;2.17;1.10;;;;;;;25.23;69.22;101386.91;10392693;28;20087;-85
2023/05/01 11:53:17;;;;;;;0.47;0.30;;;;;;;24.61;69.73;101388.50;10390506;28;20056;-83
2023/05/01 11:58:30;;;;;;;4.22;1.25;;;;;;;25.33;64.50;101379.59;10393539;28;20069;-84
2023/05/01 12:03:40;;;;;;;0.50;0.20;;;;;;;25.02;72.98;101378.72;10376119;28;20048;-84
2023/05/01 12:08:44;;;;;;;0.52;0.30;;;;;;;24.15;70.02;101390.50;10376370;28;20050;-83
2023/05/01 12:13:47;;;;;;;0.50;0.17;;;;;;;25.90;68.51;101375.31;10371525;28;20045;-84
2023/05/01 12:18:48;;;;;;;0.10;0.10;;;;;;;24.16;75.66;101380.84;10356658;28;20196;-83
2023/05/01 12:23:50;;;;;;;1.05;0.43;;;;;;;25.29;67.73;101370.06;10379391;28;20140;-83
2023/05/01 12:29:03;;;;;;;0.30;0.13;;;;;;;23.67;77.13;101385.41;10370208;28;20539;-82
2023/05/01 12:34:06;;;;;;;6.75;1.20;;;;;;;25.42;83.18;101365.34;10372723;28;20045;-82
2023/05/01 12:39:09;;;;;;;1.02;0.95;;;;;;;26.10;64.97;101369.47;10372136;28;20084;-85
2023/05/01 12:44:21;;;;;;;0.25;0.25;;;;;;;24.36;66.66;101370.69;10370947;28;20048;-83
2023/05/01 12:49:24;;;;;;;0.77;0.45;;;;;;;26.59;59.46;101366.97;10389611;28;20133;-88
2023/05/01 12:54:37;;;;;;;0.20;0.10;;;;;;;24.27;67.28;101365.66;10386874;28;20125;-84
2023/05/01 12:59:43;;;;;;;1.50;1.17;;;;;;;23.42;73.07;101365.72;10367295;28;20129;-83
2023/05/01 13:04:48;;;;;;;0.17;0.10;;;;;;;24.23;68.63;101366.66;10363907;28;20040;-84
2023/05/01 13:09:55;;;;;;;1.50;0.32;;;;;;;24.20;68.56;101351.75;10393875;28;20097;-84
2023/05/01 13:14:57;;;;;;;0.93;0.17;;;;;;;22.29;75.96;101367.69;10393965;28;20050;-83
2023/05/01 13:20:00;;;;;;;0.32;0.30;;;;;;;22.28;78.77;101371.22;10378934;28;20061;-82
2023/05/01 13:25:12;;;;;;;0.60;0.60;;;;;;;22.03;84.66;101370.72;10388167;28;20412;-82
2023/05/01 13:30:15;;;;;;;0.52;0.50;;;;;;;22.21;83.29;101371.34;10387122;28;20128;-83
2023/05/01 13:35:24;;;;;;;0.40;0.28;;;;;;;23.06;83.78;101365.53;10389660;28;20042;-84
2023/05/01 13:40:26;;;;;;;0.25;0.17;;;;;;;22.27;80.77;101376.50;10379047;28;20067;-83
2023/05/01 13:45:27;;;;;;;0.38;0.20;;;;;;;21.53;81.50;101379.22;10346645;28;20129;-83
2023/05/01 13:50:29;;;;;;;0.22;0.20;;;;;;;21.67;79.54;101378.19;10366632;28;20050;-81
2023/05/01 13:55:31;;;;;;;0.47;0.20;;;;;;;21.00;77.67;101385.91;10362536;28;20037;-81
2023/05/01 14:00:33;;;;;;;0.10;0.10;;;;;;;21.13;80.07;101387.50;10378183;28;20116;-83
2023/05/01 14:05:35;;;;;;;0.55;0.52;;;;;;;21.25;78.18;101391.75;10375725;28;20408;-82
2023/05/01 14:10:37;;;;;;;0.10;0.10;;;;;;;21.50;83.56;101389.72;10366545;28;20065;-81
2023/05/01 14:15:42;;;;;;;0.25;0.20;;;;;;;21.26;79.87;101397.88;10355946;28;20038;-82
2023/05/01 14:20:48;;;;;;;0.10;0.10;;;;;;;20.71;77.48;101398.34;10367840;28;20081;-81
2023/05/01 14:25:50;;;;;;;0.45;0.17;;;;;;;20.70;72.20;101401.00;10359172;28;20047;-83
2023/05/01 14:30:53;;;;;;;0.35;0.20;;;;;;;20.85;77.44;101402.66;10375845;28;20046;-82
2023/05/01 14:35:55;;;;;;;0.30;0.30;;;;;;;21.68;75.06;101390.44;10346855;28;20432;-83
2023/05/01 14:40:57;;;;;;;0.00;0.00;;;;;;;21.55;71.82;101389.66;10376765;28;20540;-82
2023/05/01 14:45:59;;;;;;;0.08;0.05;;;;;;;21.18;79.74;101390.09;10387485;28;20522;-82
2023/05/01 14:51:03;;;;;;;0.13;0.10;;;;;;;22.11;76.87;101381.13;10359380;28;20049;-81
2023/05/01 14:56:05;;;;;;;0.10;0.10;;;;;;;21.82;72.17;101398.97;10359389;28;20077;-84
2023/05/01 15:01:06;;;;;;;0.00;0.00;;;;;;;22.31;69.10;101391.28;10359640;28;20594;-83
2023/05/01 15:06:08;;;;;;;0.22;0.10;;;;;;;22.24;71.23;101392.28;10381178;28;20038;-82
2023/05/01 15:11:13;;;;;;;0.10;0.10;;;;;;;23.03;71.58;101383.13;10353961;28;20045;-82
2023/05/01 15:16:14;;;;;;;0.30;0.20;;;;;;;22.63;73.14;101385.56;10366104;28;20052;-82
2023/05/01 15:21:17;;;;;;;0.10;0.10;;;;;;;22.98;74.63;101393.72;10372490;28;20654;-83
2023/05/01 15:26:18;;;;;;;0.10;0.10;;;;;;;22.31;69.64;101401.78;10389798;28;20405;-83
2023/05/01 15:31:20;;;;;;;0.73;0.43;;;;;;;23.30;72.34;101400.16;10379182;28;20567;-82
2023/05/01 15:36:21;;;;;;;0.65;0.55;;;;;;;21.32;82.74;101424.03;10375343;28;20045;-83
2023/05/01 15:41:23;;;;;;;2.25;1.10;;;;;;;20.80;89.37;101435.84;10375248;28;20135;-82
2023/05/01 15:46:25;;;;;;;0.30;0.20;;;;;;;20.51;90.24;101444.75;10372583;28;20045;-82
2023/05/01 15:51:30;;;;;;;0.73;0.73;;;;;;;20.58;91.57;101444.72;10362049;28;20712;-81
2023/05/01 15:56:36;;;;;;;0.35;0.10;;;;;;;19.60;93.26;101457.38;10362448;28;20065;-82
2023/05/01 16:01:37;;;;;;;0.15;0.15;;;;;;;19.34;97.95;101468.75;10375985;28;20559;-82
2023/05/01 16:06:39;;;;;;;0.47;0.20;;;;;;;18.82;97.70;101480.06;10367007;28;20512;-83
2023/05/01 16:11:41;;;;;;;0.17;0.17;;;;;;;18.55;99.21;101476.53;10379248;28;20056;-82
2023/05/01 16:16:42;;;;;;;0.10;0.10;;;;;;;18.89;100.00;101480.91;10385423;28;20034;-82
2023/05/01 16:21:44;;;;;;;1.23;0.57;;;;;;;19.16;97.44;101492.28;10369407;28;20071;-79
2023/05/01 16:26:46;;;;;;;0.75;0.40;;;;;;;18.87;96.88;101495.72;10389672;28;20579;-79
2023/05/01 16:31:47;;;;;;;0.65;0.30;;;;;;;19.20;100.00;101501.84;10374357;28;20124;-80
2023/05/01 16:36:49;;;;;;;0.65;0.55;;;;;;;18.92;96.76;101501.84;10367041;28;20120;-80
2023/05/01 16:41:52;;;;;;;0.63;0.30;;;;;;;18.86;96.29;101502.66;10393829;28;20045;-80
2023/05/01 16:46:55;;;;;;;0.75;0.45;;;;;;;18.70;97.84;101509.63;10363837;28;20117;-81
2023/05/01 16:51:57;;;;;;;0.50;0.35;;;;;;;19.74;97.01;101506.97;10348341;28;20103;-80
2023/05/01 16:56:59;;;;;;;0.20;0.10;;;;;;;18.94;97.86;101514.91;10362103;28;20562;-83
2023/05/01 17:02:00;;;;;;;0.10;0.08;;;;;;;19.29;93.97;101512.28;10386726;28;20077;-84
2023/05/01 17:07:02;;;;;;;0.38;0.20;;;;;;;19.21;94.11;101508.81;10390738;28;20431;-82
2023/05/01 17:12:05;;;;;;;0.70;0.30;;;;;;;19.11;96.44;101518.41;10388276;28;20045;-84
2023/05/01 17:17:06;;;;;;;0.73;0.73;;;;;;;19.10;91.79;101515.78;10375409;28;20073;-84
2023/05/01 17:22:10;;;;;;;0.52;0.25;;;;;;;19.71;93.87;101519.19;10344383;28;20050;-82
2023/05/01 17:27:12;;;;;;;0.77;0.22;;;;;;;19.71;89.39;101527.03;10385021;28;20038;-82
2023/05/01 17:32:13;;;;;;;0.15;0.15;;;;;;;20.31;89.02;101520.75;10363172;28;20042;-82
2023/05/01 17:37:33;;;;;;;0.45;0.28;;;;;;;19.73;91.43;101528.75;10371153;28;20099;-83
2023/05/01 17:42:36;;;;;;;0.57;0.32;;;;;;;19.08;99.14;101533.19;10374389;28;20470;-84
2023/05/01 17:47:40;;;;;;;0.32;0.30;;;;;;;18.93;95.95;101542.75;10394828;28;20045;-83
2023/05/01 17:52:43;;;;;;;0.10;0.10;;;;;;;18.71;97.28;101545.31;10393457;28;20048;-83
2023/05/01 17:57:46;;;;;;;0.20;0.20;;;;;;;18.44;97.96;101558.25;10364605;28;20554;-85
2023/05/01 18:02:48;;;;;;;1.15;0.40;;;;;;;17.53;98.69;101569.03;10378670;28;20054;-84
2023/05/01 18:07:49;;;;;;;0.30;0.30;;;;;;;17.43;99.70;101571.53;10373010;28;20216;-83
2023/05/01 18:12:51;;;;;;;0.45;0.25;;;;;;;17.31;100.00;101580.97;10403000;28;20532;-83
2023/05/01 18:17:52;;;;;;;1.08;0.47;;;;;;;16.99;100.00;101582.44;10366017;28;20132;-84
2023/05/01 18:22:54;;;;;;;0.03;0.00;;;;;;;16.68;100.00;101579.47;10376237;28;20501;-83
2023/05/01 18:27:57;;;;;;;0.38;0.15;;;;;;;16.53;100.00;101589.69;10392557;28;20038;-83
2023/05/01 18:32:58;;;;;;;0.25;0.25;;;;;;;16.70;100.00;101598.56;10375220;28;20513;-83
2023/05/01 18:38:00;;;;;;;0.43;0.40;;;;;;;16.69;100.00;101599.41;10383378;28;20049;-82
2023/05/01 18:43:02;;;;;;;0.52;0.45;;;;;;;16.25;100.00;101615.34;10391623;28;20072;-82
2023/05/01 18:48:04;;;;;;;0.45;0.22;;;;;;;16.41;100.00;101614.69;10364826;28;20242;-80
2023/05/01 18:53:05;;;;;;;0.47;0.47;;;;;;;16.38;100.00;101614.63;10373630;28;20038;-81
2023/05/01 18:58:07;;;;;;;0.25;0.25;;;;;;;16.39;100.00;101621.59;10388362;28;20059;-81
2023/05/01 19:03:11;;;;;;;0.32;0.32;;;;;;;16.22;100.00;101639.56;10380178;28;20109;-83
2023/05/01 19:08:12;;;;;;;0.35;0.28;;;;;;;16.08;100.00;101647.16;10364824;28;20045;-79
2023/05/01 19:13:14;;;;;;;0.98;0.70;;;;;;;16.18;100.00;101654.25;10372014;28;20134;-79
2023/05/01 19:18:15;;;;;;;2.35;0.77;;;;;;;16.23;100.00;101656.03;10389803;28;20121;-79
2023/05/01 19:23:17;;;;;;;1.08;0.75;;;;;;;16.37;100.00;101666.63;10391639;28;20121;-80
2023/05/01 19:28:18;;;;;;;0.90;0.47;;;;;;;16.06;100.00;101669.63;10376621;28;20447;-79
2023/05/01 19:33:20;;;;;;;3.83;0.77;;;;;;;16.02;100.00;101678.25;10395047;28;20134;-80
2023/05/01 19:38:21;;;;;;;1.25;1.08;;;;;;;16.50;100.00;101692.81;10373857;28;20468;-81
2023/05/01 19:43:23;;;;;;;1.52;0.80;;;;;;;16.55;100.00;101694.63;10371623;28;20045;-81
2023/05/01 19:48:24;;;;;;;1.25;0.68;;;;;;;15.99;100.00;101693.78;10376875;28;20052;-81
2023/05/01 19:53:27;;;;;;;2.42;1.25;;;;;;;15.85;100.00;101703.97;10392972;28;20073;-80
2023/05/01 19:58:28;;;;;;;1.35;0.95;;;;;;;16.21;100.00;101710.59;10376772;28;20057;-81
2023/05/01 20:03:30;;;;;;;0.82;0.80;;;;;;;15.72;100.00;101715.84;10386222;28;20050;-79
2023/05/01 20:08:32;;;;;;;1.70;0.93;;;;;;;15.85;100.00;101714.38;10381825;28;20128;-80
2023/05/01 20:13:34;;;;;;;1.45;1.25;;;;;;;15.72;100.00;101713.25;10403550;28;20149;-80
2023/05/01 20:18:36;;;;;;;1.00;0.85;;;;;;;16.00;100.00;101708.53;10390548;28;20048;-80
2023/05/01 20:23:37;;;;;;;1.67;0.77;;;;;;;16.12;100.00;101716.50;10388193;28;20042;-79
2023/05/01 20:28:39;;;;;;;1.67;1.13;;;;;;;15.60;100.00;101723.41;10370551;28;20144;-80
2023/05/01 20:33:40;;;;;;;3.90;0.95;;;;;;;15.46;100.00;101739.59;10389664;28;20045;-80
2023/05/01 20:38:45;;;;;;;1.38;0.93;;;;;;;15.85;100.00;101743.81;10353559;28;20092;-80
2023/05/01 20:43:46;;;;;;;0.93;0.70;;;;;;;16.02;100.00;101740.63;10370570;28;20046;-80
2023/05/01 20:48:48;;;;;;;2.03;1.25;;;;;;;15.56;100.00;101753.66;10369840;28;20528;-80
2023/05/01 20:53:49;;;;;;;1.23;0.95;;;;;;;15.54;100.00;101757.94;10367683;28;20081;-80
2023/05/01 20:58:51;;;;;;;1.10;0.73;;;;;;;15.56;100.00;101766.63;10381959;28;20509;-81
2023/05/01 21:03:52;;;;;;;1.63;0.63;;;;;;;16.04;100.00;101761.44;10391537;28;20056;-80
2023/05/01 21:08:54;;;;;;;0.77;0.38;;;;;;;15.59;100.00;101773.59;10384883;28;20091;-80
2023/05/01 21:13:56;;;;;;;1.15;0.93;;;;;;;15.12;100.00;101772.69;10372187;28;20598;-80
2023/05/01 21:18:58;;;;;;;0.68;0.57;;;;;;;15.04;100.00;101776.81;10366825;28;20642;-80
2023/05/01 21:23:59;;;;;;;1.15;0.52;;;;;;;15.09;100.00;101782.97;10358626;28;20538;-79
2023/05/01 21:29:01;;;;;;;2.85;1.45;;;;;;;14.67;100.00;101776.00;10376779;28;20041;-80
2023/05/01 21:34:03;;;;;;;2.85;1.50;;;;;;;14.40;100.00;101782.28;10363560;28;20080;-79
2023/05/01 21:39:04;;;;;;;6.95;1.88;;;;;;;14.29;100.00;101784.63;10365442;28;20050;-80
2023/05/01 21:44:08;;;;;;;1.60;1.08;;;;;;;14.24;100.00;101796.56;10383265;28;20601;-80
2023/05/01 21:49:17;;;;;;;1.88;1.38;;;;;;;14.09;100.00;101800.50;10385589;28;20105;-80
2023/05/01 21:54:18;;;;;;;1.33;0.60;;;;;;;14.47;100.00;101802.31;10366726;28;20188;-80
2023/05/01 21:59:22;;;;;;;1.35;0.63;;;;;;;14.24;100.00;101813.00;10383403;28;20057;-79
2023/05/01 22:04:23;;;;;;;1.42;1.27;;;;;;;14.04;100.00;101819.38;10402429;28;20053;-80
2023/05/01 22:09:25;;;;;;;19.05;1.52;;;;;;;14.11;100.00;101816.13;10392769;28;20088;-80
2023/05/01 22:14:26;;;;;;;1.10;0.57;;;;;;;14.21;100.00;101812.91;10381493;28;20060;-80
2023/05/01 22:19:46;;;;;;;;;;;;;;;14.14;100.00;101817.91;10372727;28;20107;-80
2023/05/01 22:24:48;;;;;;;4.43;1.20;;;;;;;14.19;100.00;101826.69;10377292;28;19930;-80
2023/05/01 22:29:49;;;;;;;1.60;1.48;;;;;;;13.87;100.00;101832.78;10398090;28;20033;-80
2023/05/01 22:34:51;;;;;;;1.38;1.23;;;;;;;13.96;100.00;101833.00;10398454;28;20120;-80
2023/05/01 22:39:52;;;;;;;3.08;1.88;;;;;;;14.08;100.00;101831.59;10360345;28;20084;-81
2023/05/01 22:44:54;;;;;;;3.15;1.50;;;;;;;14.08;100.00;101837.63;10349166;28;20533;-79
2023/05/01 22:49:55;;;;;;;2.38;1.80;;;;;;;14.39;100.00;101837.56;10348126;28;20132;-80
2023/05/01 22:54:57;;;;;;;1.63;1.52;;;;;;;14.11;100.00;101857.59;10340696;28;20045;-79
2023/05/01 22:59:59;;;;;;;2.03;1.17;;;;;;;14.42;100.00;101858.34;10359246;28;20046;-80
2023/05/01 23:05:01;;;;;;;1.52;1.08;;;;;;;14.73;100.00;101859.16;10379690;28;20050;-80